Terminal Aerodrome Forecast
Issued by NWS

Home | Current Version | Previous Version | Text Only | Print | Product List | Glossary On
Versions: 1 2 3 4 5 6 7 8 9 10 11 12 13 14 15
000
FTAK31 PAJN 230500
TAFAWG
TAF
PAWG 230525Z 2306/2406 10008KT P6SM VCSH SCT050 BKN100
     FM231000 10011KT P6SM -RA SCT025 BKN050 OVC070
     FM231500 10011G18KT P6SM -RA BKN025 OVC050
     FM232200 09015G25KT P6SM VCSH BKN035 OVC060
      AMD LTD TO CLD VIS AND WIND 2306/2315=

USA.gov is the U.S. government's official web portal to all federal, state and local government web resources and services.